createdAt,value
2022-09-18T00:00:14.372Z,95.25
2022-09-18T00:02:40.869Z,95.52
2022-09-18T00:05:07.704Z,95.33
2022-09-18T00:07:34.050Z,94.52
2022-09-18T00:10:00.431Z,94.66
2022-09-18T00:12:26.912Z,94.50
2022-09-18T00:14:53.432Z,93.83
2022-09-18T00:17:19.770Z,94.17
2022-09-18T00:19:46.233Z,94.41
2022-09-18T00:22:12.581Z,94.26
2022-09-18T00:24:38.982Z,93.99
2022-09-18T00:27:05.400Z,94.00
2022-09-18T00:29:31.752Z,93.91
2022-09-18T00:31:59.782Z,93.40
2022-09-18T00:34:26.176Z,93.65
2022-09-18T00:36:52.533Z,93.74
2022-09-18T00:39:18.950Z,93.49
2022-09-18T00:41:45.423Z,92.65
2022-09-18T00:44:30.800Z,92.62
2022-09-18T00:47:29.328Z,92.60
2022-09-18T00:50:04.952Z,92.63
2022-09-18T00:52:39.762Z,92.71
2022-09-18T00:55:09.629Z,92.19
2022-09-18T00:57:41.156Z,92.45
2022-09-18T01:00:14.768Z,91.84
2022-09-18T01:02:43.046Z,91.67
2022-09-18T01:05:11.155Z,92.09
2022-09-18T01:08:13.778Z,91.75
2022-09-18T01:10:55.876Z,91.53
2022-09-18T01:13:38.092Z,90.94
2022-09-18T01:16:13.637Z,90.36
2022-09-18T01:18:51.092Z,91.33
2022-09-18T01:21:33.476Z,90.46
2022-09-18T01:24:34.126Z,91.28
2022-09-18T01:27:07.604Z,91.03
2022-09-18T01:29:37.029Z,90.81
2022-09-18T01:32:09.746Z,90.74
2022-09-18T01:34:46.255Z,90.27
2022-09-18T01:37:30.951Z,90.55
2022-09-18T01:40:12.731Z,90.35
2022-09-18T01:42:41.080Z,90.12
2022-09-18T01:45:16.451Z,90.18
2022-09-18T01:47:56.073Z,89.71
2022-09-18T01:50:27.869Z,90.36
2022-09-18T01:53:00.660Z,89.81
2022-09-18T01:55:30.716Z,89.61
2022-09-18T01:58:07.157Z,89.54
2022-09-18T02:00:37.372Z,89.21
2022-09-18T02:03:15.692Z,89.09
2022-09-18T02:05:48.100Z,89.44
2022-09-18T02:08:26.231Z,89.72
2022-09-18T02:11:02.793Z,89.69
2022-09-18T02:13:37.026Z,89.63
2022-09-18T02:16:11.691Z,89.85
2022-09-18T02:18:45.081Z,89.46
2022-09-18T02:21:16.737Z,89.26
2022-09-18T02:23:43.121Z,88.42
2022-09-18T02:26:12.880Z,88.06
2022-09-18T02:28:41.026Z,88.20
2022-09-18T02:31:07.704Z,88.45
2022-09-18T02:33:38.439Z,88.54
2022-09-18T02:36:05.970Z,88.64
2022-09-18T02:38:59.491Z,88.31
2022-09-18T02:41:44.380Z,85.72
2022-09-18T02:44:20.840Z,85.65
2022-09-18T02:46:53.890Z,86.26
2022-09-18T02:49:57.017Z,85.75
2022-09-18T02:52:42.499Z,86.39
2022-09-18T02:55:18.203Z,86.39
2022-09-18T02:58:31.266Z,86.37
2022-09-18T03:01:02.647Z,86.03
2022-09-18T03:03:32.490Z,86.37
2022-09-18T03:06:06.698Z,86.41
2022-09-18T03:08:35.521Z,86.92
2022-09-18T03:11:03.826Z,86.50
2022-09-18T03:13:30.313Z,87.48
2022-09-18T03:15:56.876Z,87.83
2022-09-18T03:18:25.219Z,87.46
2022-09-18T03:20:54.355Z,87.99
2022-09-18T03:23:20.745Z,87.75
2022-09-18T03:25:50.263Z,88.81
2022-09-18T03:28:17.966Z,89.06
2022-09-18T03:30:45.366Z,88.99
2022-09-18T03:33:13.632Z,89.52
2022-09-18T03:35:43.630Z,89.95
2022-09-18T03:38:10.270Z,90.51
2022-09-18T03:40:36.936Z,90.46
2022-09-18T03:43:05.564Z,91.21
2022-09-18T03:45:32.082Z,91.57
2022-09-18T03:47:59.856Z,92.08
2022-09-18T03:50:26.340Z,93.27
2022-09-18T03:52:52.826Z,93.43
2022-09-18T03:55:33.843Z,93.99
2022-09-18T03:58:18.806Z,94.21
2022-09-18T04:01:04.321Z,94.62
2022-09-18T04:03:42.416Z,94.09
2022-09-18T04:06:31.368Z,94.91
2022-09-18T04:09:21.318Z,94.71
2022-09-18T04:11:50.516Z,95.36
2022-09-18T04:14:17.939Z,96.13
2022-09-18T04:16:45.211Z,96.07
2022-09-18T04:19:11.597Z,96.23
2022-09-18T04:21:38.972Z,96.32
2022-09-18T04:24:06.245Z,96.58
2022-09-18T04:26:36.664Z,96.73
2022-09-18T04:29:04.449Z,96.46
2022-09-18T04:31:31.607Z,96.40
2022-09-18T04:34:03.104Z,96.89
2022-09-18T04:36:29.465Z,96.74
2022-09-18T04:38:55.847Z,96.69
2022-09-18T04:41:22.250Z,95.82
2022-09-18T04:43:48.649Z,95.88
2022-09-18T04:46:15.700Z,95.95
2022-09-18T04:48:47.931Z,96.06
2022-09-18T04:51:15.542Z,97.08
2022-09-18T04:53:47.778Z,96.61
2022-09-18T04:56:14.614Z,96.34
2022-09-18T04:58:45.213Z,96.49
2022-09-18T05:01:12.384Z,96.62
2022-09-18T05:03:38.787Z,96.91
2022-09-18T05:06:06.780Z,96.85
2022-09-18T05:08:34.608Z,97.21
2022-09-18T05:11:02.105Z,96.58
2022-09-18T05:13:30.900Z,97.29
2022-09-18T05:16:03.225Z,96.99
2022-09-18T05:18:30.917Z,97.19
2022-09-18T05:21:05.655Z,96.72
2022-09-18T05:23:34.380Z,97.42
2022-09-18T05:26:04.257Z,96.92
2022-09-18T05:28:31.458Z,97.19
2022-09-18T05:31:00.345Z,96.41
2022-09-18T05:33:32.786Z,97.15
2022-09-18T05:35:59.248Z,97.25
2022-09-18T05:38:26.430Z,96.76
2022-09-18T05:40:53.768Z,96.61
2022-09-18T05:43:20.119Z,96.28
2022-09-18T05:45:48.893Z,96.85
2022-09-18T05:48:20.737Z,97.06
2022-09-18T05:50:48.320Z,96.59
2022-09-18T05:53:18.488Z,96.62
2022-09-18T05:56:05.167Z,97.65
2022-09-18T05:58:31.934Z,97.35
2022-09-18T06:01:01.166Z,96.72
2022-09-18T06:03:38.346Z,96.24
2022-09-18T06:06:04.888Z,97.09
2022-09-18T06:08:31.325Z,96.61
2022-09-18T06:11:01.366Z,96.22
2022-09-18T06:13:30.267Z,97.10
2022-09-18T06:15:57.444Z,96.54
2022-09-18T06:18:38.397Z,96.76
2022-09-18T06:21:05.074Z,97.03
2022-09-18T06:23:31.941Z,96.74
2022-09-18T06:26:09.403Z,96.67
2022-09-18T06:28:39.543Z,96.61
2022-09-18T06:31:06.797Z,96.23
2022-09-18T06:33:53.229Z,96.27
2022-09-18T06:36:20.412Z,96.51
2022-09-18T06:39:00.067Z,96.02
2022-09-18T06:41:26.509Z,96.30
2022-09-18T06:43:54.655Z,96.65
2022-09-18T06:46:26.879Z,97.07
2022-09-18T06:48:54.138Z,96.36
2022-09-18T06:51:20.613Z,96.70
2022-09-18T06:54:08.442Z,96.18
2022-09-18T06:56:35.165Z,96.38
2022-09-18T06:59:01.937Z,96.66
2022-09-18T07:01:29.066Z,96.70
2022-09-18T07:04:06.288Z,96.73
2022-09-18T07:06:39.646Z,96.61
2022-09-18T07:09:06.163Z,96.54
2022-09-18T07:11:52.483Z,96.75
2022-09-18T07:14:21.524Z,96.21
2022-09-18T07:16:52.916Z,96.62
2022-09-18T07:19:19.781Z,96.73
2022-09-18T07:21:46.123Z,97.13
2022-09-18T07:24:12.554Z,96.81
2022-09-18T07:26:39.371Z,97.42
2022-09-18T07:29:10.093Z,97.40
2022-09-18T07:31:36.978Z,96.68
2022-09-18T07:34:09.147Z,96.98
2022-09-18T07:36:35.586Z,96.30
2022-09-18T07:39:02.743Z,96.65
2022-09-18T07:41:38.204Z,96.78
2022-09-18T07:44:05.767Z,97.10
2022-09-18T07:46:32.219Z,97.46
2022-09-18T07:49:02.696Z,97.34
2022-09-18T07:51:29.837Z,97.17
2022-09-18T07:53:58.395Z,96.55
2022-09-18T07:56:46.718Z,97.26
2022-09-18T07:59:19.460Z,96.63
2022-09-18T08:01:51.494Z,96.43
2022-09-18T08:04:18.082Z,96.99
2022-09-18T08:07:03.492Z,96.24
2022-09-18T08:09:51.973Z,96.32
2022-09-18T08:12:44.197Z,96.08
2022-09-18T08:15:30.389Z,96.12
2022-09-18T08:18:29.070Z,95.80
2022-09-18T08:21:10.660Z,95.50
2022-09-18T08:23:46.601Z,95.37
2022-09-18T08:26:16.587Z,95.66
2022-09-18T08:28:47.603Z,95.52
2022-09-18T08:31:14.360Z,96.08
2022-09-18T08:33:40.826Z,95.80
2022-09-18T08:36:09.062Z,95.90
2022-09-18T08:38:37.899Z,95.89
2022-09-18T08:41:30.964Z,95.95
2022-09-18T08:44:12.330Z,95.32
2022-09-18T08:46:45.480Z,94.20
2022-09-18T08:49:37.726Z,94.18
2022-09-18T08:52:17.515Z,94.21
2022-09-18T08:54:59.486Z,94.54
2022-09-18T08:58:01.437Z,94.13
2022-09-18T09:00:48.042Z,94.27
2022-09-18T09:03:51.450Z,94.44
2022-09-18T09:06:46.989Z,94.76
2022-09-18T09:09:30.076Z,94.55
2022-09-18T09:12:16.855Z,94.58
2022-09-18T09:15:04.507Z,94.66
2022-09-18T09:17:41.038Z,94.80
2022-09-18T09:20:21.693Z,94.78
2022-09-18T09:22:51.576Z,94.72
2022-09-18T09:25:29.115Z,95.12
2022-09-18T09:28:25.126Z,94.78
2022-09-18T09:30:56.684Z,94.25
2022-09-18T09:33:52.412Z,94.49
2022-09-18T09:36:40.518Z,94.65
2022-09-18T09:39:32.557Z,94.53
2022-09-18T09:42:11.529Z,94.41
2022-09-18T09:44:53.978Z,94.40
2022-09-18T09:47:45.481Z,94.60
2022-09-18T09:50:19.847Z,93.47
2022-09-18T09:52:47.453Z,93.61
2022-09-18T09:55:27.616Z,94.04
2022-09-18T09:58:23.945Z,93.86
2022-09-18T10:01:04.047Z,93.70
2022-09-18T10:03:37.253Z,92.64
2022-09-18T10:06:24.172Z,92.18
2022-09-18T10:09:00.326Z,92.56
2022-09-18T10:11:27.001Z,91.79
2022-09-18T10:14:13.173Z,92.57
2022-09-18T10:16:45.803Z,91.14
2022-09-18T10:19:17.687Z,92.02
2022-09-18T10:21:45.404Z,92.25
2022-09-18T10:24:30.945Z,92.45
2022-09-18T10:27:07.832Z,92.96
2022-09-18T10:29:36.102Z,92.10
2022-09-18T10:32:07.016Z,92.22
2022-09-18T10:34:49.450Z,91.28
2022-09-18T10:37:45.660Z,91.12
2022-09-18T10:40:33.927Z,90.36
2022-09-18T10:43:04.861Z,89.30
2022-09-18T10:45:37.925Z,89.24
2022-09-18T10:48:28.017Z,88.99
2022-09-18T10:50:56.412Z,89.04
2022-09-18T10:53:31.576Z,88.33
2022-09-18T10:56:16.950Z,87.87
2022-09-18T10:58:44.884Z,87.74
2022-09-18T11:01:12.418Z,87.22
2022-09-18T11:03:49.712Z,86.09
2022-09-18T11:06:26.507Z,86.80
2022-09-18T11:08:59.118Z,86.80
2022-09-18T11:11:35.608Z,85.90
2022-09-18T11:14:30.109Z,85.54
2022-09-18T11:17:29.897Z,83.26
2022-09-18T11:19:59.261Z,82.25
2022-09-18T11:22:39.679Z,82.08
2022-09-18T11:25:13.682Z,81.90
2022-09-18T11:27:47.473Z,81.32
2022-09-18T11:30:35.972Z,81.45
2022-09-18T11:33:26.209Z,82.24
2022-09-18T11:36:07.563Z,82.05
2022-09-18T11:38:44.977Z,80.71
2022-09-18T11:41:20.530Z,80.71
2022-09-18T11:44:01.729Z,80.46
2022-09-18T11:47:04.346Z,80.35
2022-09-18T11:49:37.994Z,78.81
2022-09-18T11:52:18.351Z,78.10
2022-09-18T11:55:03.116Z,78.04
2022-09-18T11:57:38.861Z,77.04
2022-09-18T12:00:18.762Z,75.98
2022-09-18T12:02:58.463Z,75.25
2022-09-18T12:05:40.830Z,74.62
2022-09-18T12:08:23.733Z,73.38
2022-09-18T12:11:37.109Z,71.00
2022-09-18T12:14:13.605Z,69.59
2022-09-18T12:17:10.141Z,69.24
2022-09-18T12:19:47.984Z,70.29
2022-09-18T12:22:29.629Z,70.02
2022-09-18T12:24:56.017Z,67.62
2022-09-18T12:27:56.725Z,66.54
2022-09-18T12:30:42.664Z,64.94
2022-09-18T12:33:21.217Z,64.67
2022-09-18T12:36:18.264Z,64.45
2022-09-18T12:38:57.848Z,64.74
2022-09-18T12:41:51.395Z,65.20
2022-09-18T12:44:55.600Z,63.75
2022-09-18T12:47:41.032Z,65.04
2022-09-18T12:50:31.711Z,66.05
2022-09-18T12:53:13.774Z,65.82
2022-09-18T12:55:49.265Z,66.41
2022-09-18T12:58:31.773Z,67.13
2022-09-18T13:01:03.373Z,66.31
2022-09-18T13:03:35.994Z,66.99
2022-09-18T13:06:13.707Z,67.42
2022-09-18T13:08:51.497Z,66.12
2022-09-18T13:11:32.924Z,65.79
2022-09-18T13:14:01.764Z,65.58
2022-09-18T13:16:35.216Z,66.92
2022-09-18T13:19:13.427Z,66.04
2022-09-18T13:21:44.153Z,66.28
2022-09-18T13:24:15.874Z,66.73
2022-09-18T13:26:45.164Z,66.08
2022-09-18T13:29:46.750Z,64.99
2022-09-18T13:32:14.687Z,64.30
2022-09-18T13:34:50.113Z,64.29
2022-09-18T13:37:19.843Z,65.00
2022-09-18T13:40:09.380Z,64.40
2022-09-18T13:42:40.566Z,64.44
2022-09-18T13:45:18.595Z,65.09
2022-09-18T13:48:02.732Z,65.37
2022-09-18T13:50:30.337Z,64.55
2022-09-18T13:52:58.687Z,63.89
2022-09-18T13:55:27.769Z,64.59
2022-09-18T13:58:31.315Z,62.64
2022-09-18T14:01:00.158Z,63.37
2022-09-18T14:03:27.891Z,63.43
2022-09-18T14:05:55.011Z,63.81
2022-09-18T14:08:22.177Z,62.56
2022-09-18T14:11:11.367Z,63.38
2022-09-18T14:13:51.587Z,64.08
2022-09-18T14:16:18.658Z,63.94
2022-09-18T14:18:46.548Z,63.48
2022-09-18T14:21:18.814Z,64.18
2022-09-18T14:23:48.285Z,65.33
2022-09-18T14:26:37.218Z,65.13
2022-09-18T14:29:14.818Z,65.69
2022-09-18T14:31:41.203Z,64.90
2022-09-18T14:34:25.121Z,66.15
2022-09-18T14:36:55.125Z,65.95
2022-09-18T14:39:37.804Z,65.44
2022-09-18T14:42:11.356Z,65.96
2022-09-18T14:44:38.203Z,66.75
2022-09-18T14:47:06.444Z,66.65
2022-09-18T14:49:44.554Z,66.65
2022-09-18T14:52:25.633Z,66.71
2022-09-18T14:54:57.125Z,66.11
2022-09-18T14:57:28.827Z,65.39
2022-09-18T14:59:57.461Z,64.48
2022-09-18T15:02:42.074Z,64.71
2022-09-18T15:05:12.385Z,64.22
2022-09-18T15:07:39.943Z,64.44
2022-09-18T15:10:08.493Z,64.95
2022-09-18T15:12:36.431Z,65.59
2022-09-18T15:15:30.040Z,64.97
2022-09-18T15:17:57.044Z,65.27
2022-09-18T15:20:24.763Z,65.29
2022-09-18T15:22:53.850Z,66.04
2022-09-18T15:25:32.392Z,65.11
2022-09-18T15:28:03.889Z,64.51
2022-09-18T15:30:30.581Z,64.40
2022-09-18T15:33:04.354Z,64.99
2022-09-18T15:35:36.394Z,65.08
2022-09-18T15:38:06.125Z,65.08
2022-09-18T15:40:36.051Z,64.56
2022-09-18T15:43:05.127Z,64.75
2022-09-18T15:45:34.505Z,64.61
2022-09-18T15:48:22.082Z,64.97
2022-09-18T15:50:48.771Z,64.88
2022-09-18T15:53:22.016Z,63.89
2022-09-18T15:55:54.306Z,64.20
2022-09-18T15:58:33.196Z,64.19
2022-09-18T16:01:02.341Z,64.85
2022-09-18T16:03:31.418Z,64.80
2022-09-18T16:06:04.777Z,64.78
2022-09-18T16:08:37.461Z,64.95
2022-09-18T16:11:05.171Z,65.41
2022-09-18T16:13:38.743Z,65.44
2022-09-18T16:16:08.247Z,66.34
2022-09-18T16:18:47.383Z,65.99
2022-09-18T16:21:13.988Z,66.04
2022-09-18T16:23:50.597Z,65.82
2022-09-18T16:26:19.735Z,66.11
2022-09-18T16:28:51.948Z,66.56
2022-09-18T16:31:21.241Z,66.27
2022-09-18T16:34:01.310Z,66.70
2022-09-18T16:36:34.865Z,66.83
2022-09-18T16:39:07.783Z,67.07
2022-09-18T16:41:35.453Z,67.27
2022-09-18T16:44:04.247Z,67.92
2022-09-18T16:46:42.126Z,67.84
2022-09-18T16:49:11.370Z,68.00
2022-09-18T16:51:38.160Z,67.69
2022-09-18T16:54:04.931Z,68.04
2022-09-18T16:56:48.637Z,67.89
2022-09-18T16:59:15.841Z,67.89
2022-09-18T17:02:00.334Z,68.35
2022-09-18T17:04:29.133Z,68.12
2022-09-18T17:06:55.483Z,67.88
2022-09-18T17:09:23.774Z,67.83
2022-09-18T17:11:50.999Z,67.94
2022-09-18T17:14:17.428Z,68.25
2022-09-18T17:16:45.096Z,68.45
2022-09-18T17:19:12.177Z,68.49
2022-09-18T17:21:39.442Z,68.08
2022-09-18T17:24:06.366Z,68.23
2022-09-18T17:26:35.524Z,68.39
2022-09-18T17:29:02.008Z,68.17
2022-09-18T17:31:28.706Z,68.54
2022-09-18T17:33:56.044Z,68.35
2022-09-18T17:36:22.639Z,68.50
2022-09-18T17:38:49.283Z,68.27
2022-09-18T17:41:18.839Z,68.27
2022-09-18T17:43:50.085Z,68.56
2022-09-18T17:46:16.458Z,68.12
2022-09-18T17:48:42.966Z,68.00
2022-09-18T17:51:12.682Z,68.41
2022-09-18T17:53:40.325Z,68.40
2022-09-18T17:56:09.648Z,68.13
2022-09-18T17:58:40.030Z,68.25
2022-09-18T18:01:12.711Z,68.06
2022-09-18T18:03:39.563Z,68.35
2022-09-18T18:06:06.174Z,67.87
2022-09-18T18:08:32.774Z,68.37
2022-09-18T18:11:04.961Z,68.45
2022-09-18T18:13:31.455Z,68.75
2022-09-18T18:16:11.451Z,68.72
2022-09-18T18:18:38.417Z,68.89
2022-09-18T18:21:06.235Z,68.90
2022-09-18T18:23:33.525Z,69.07
2022-09-18T18:26:02.121Z,69.47
2022-09-18T18:28:31.683Z,69.64
2022-09-18T18:31:06.078Z,69.00
2022-09-18T18:33:34.229Z,69.10
2022-09-18T18:36:20.470Z,69.06
2022-09-18T18:38:49.248Z,69.14
2022-09-18T18:41:17.014Z,69.44
2022-09-18T18:43:44.588Z,69.49
2022-09-18T18:46:15.385Z,69.48
2022-09-18T18:48:43.719Z,69.57
2022-09-18T18:51:15.791Z,69.38
2022-09-18T18:53:42.896Z,69.44
2022-09-18T18:56:13.952Z,69.24
2022-09-18T18:58:40.761Z,68.46
2022-09-18T19:01:09.160Z,68.24
2022-09-18T19:03:41.841Z,67.32
2022-09-18T19:06:08.903Z,67.36
2022-09-18T19:08:38.407Z,66.85
2022-09-18T19:11:06.642Z,67.12
2022-09-18T19:13:41.214Z,67.25
2022-09-18T19:16:08.042Z,68.36
2022-09-18T19:18:34.903Z,68.38
2022-09-18T19:21:01.532Z,68.48
2022-09-18T19:23:28.264Z,67.87
2022-09-18T19:25:59.875Z,68.29
2022-09-18T19:28:30.221Z,68.34
2022-09-18T19:31:04.123Z,68.82
2022-09-18T19:33:32.273Z,68.32
2022-09-18T19:36:06.400Z,69.08
2022-09-18T19:38:36.762Z,68.93
2022-09-18T19:41:13.608Z,69.44
2022-09-18T19:43:40.069Z,69.19
2022-09-18T19:46:11.466Z,69.27
2022-09-18T19:48:37.924Z,69.16
2022-09-18T19:51:04.553Z,69.22
2022-09-18T19:53:31.018Z,68.56
2022-09-18T19:55:57.808Z,68.13
2022-09-18T19:58:24.141Z,67.22
2022-09-18T20:00:50.791Z,67.22
2022-09-18T20:03:17.437Z,67.42
2022-09-18T20:05:44.185Z,67.50
2022-09-18T20:08:11.107Z,68.24
2022-09-18T20:10:39.049Z,67.54
2022-09-18T20:13:06.123Z,67.32
2022-09-18T20:15:32.523Z,67.97
2022-09-18T20:17:59.480Z,68.49
2022-09-18T20:20:26.517Z,69.06
2022-09-18T20:22:54.760Z,69.60
2022-09-18T20:25:22.032Z,70.11
2022-09-18T20:27:48.622Z,70.88
2022-09-18T20:30:15.439Z,70.29
2022-09-18T20:32:41.811Z,72.00
2022-09-18T20:35:08.594Z,72.89
2022-09-18T20:37:34.980Z,74.36
2022-09-18T20:40:06.731Z,75.59
2022-09-18T20:42:34.625Z,75.80
2022-09-18T20:45:04.491Z,76.33
2022-09-18T20:47:36.331Z,76.63
2022-09-18T20:50:11.766Z,76.61
2022-09-18T20:52:41.808Z,76.93
2022-09-18T20:55:14.122Z,77.35
2022-09-18T20:57:40.921Z,78.06
2022-09-18T21:00:10.009Z,77.95
2022-09-18T21:02:36.721Z,78.10
2022-09-18T21:05:10.888Z,79.03
2022-09-18T21:07:37.397Z,79.48
2022-09-18T21:10:04.115Z,80.26
2022-09-18T21:12:35.051Z,80.93
2022-09-18T21:15:02.170Z,81.70
2022-09-18T21:17:29.636Z,82.36
2022-09-18T21:19:55.973Z,82.90
2022-09-18T21:22:22.312Z,83.31
2022-09-18T21:24:48.665Z,84.06
2022-09-18T21:27:15.030Z,84.91
2022-09-18T21:29:41.390Z,85.59
2022-09-18T21:32:08.219Z,86.06
2022-09-18T21:34:34.852Z,86.89
2022-09-18T21:37:03.625Z,87.31
2022-09-18T21:39:31.371Z,87.75
2022-09-18T21:41:59.374Z,88.17
2022-09-18T21:44:27.981Z,88.49
2022-09-18T21:46:59.984Z,88.81
2022-09-18T21:49:27.617Z,89.88
2022-09-18T21:51:55.939Z,89.85
2022-09-18T21:54:23.660Z,90.29
2022-09-18T21:56:51.689Z,89.97
2022-09-18T21:59:20.162Z,90.78
2022-09-18T22:01:48.146Z,90.78
2022-09-18T22:04:14.669Z,91.45
2022-09-18T22:06:45.624Z,91.27
2022-09-18T22:09:15.244Z,91.30
2022-09-18T22:11:43.092Z,92.17
2022-09-18T22:14:12.672Z,91.95
2022-09-18T22:16:39.905Z,92.54
2022-09-18T22:19:08.269Z,92.12
2022-09-18T22:21:37.426Z,92.13
2022-09-18T22:24:08.644Z,92.08
2022-09-18T22:26:37.567Z,91.54
2022-09-18T22:29:07.359Z,92.21
2022-09-18T22:31:35.939Z,92.53
2022-09-18T22:34:02.991Z,91.97
2022-09-18T22:36:29.611Z,92.39
2022-09-18T22:38:56.514Z,91.88
2022-09-18T22:41:22.976Z,92.01
2022-09-18T22:43:54.436Z,92.15
2022-09-18T22:46:21.535Z,92.41
2022-09-18T22:48:48.373Z,91.71
2022-09-18T22:51:20.507Z,92.09
2022-09-18T22:53:50.081Z,91.89
2022-09-18T22:56:18.538Z,91.92
2022-09-18T22:58:45.404Z,92.61
2022-09-18T23:01:31.854Z,92.60
2022-09-18T23:03:59.441Z,92.23
2022-09-18T23:06:27.061Z,92.77
2022-09-18T23:08:56.131Z,93.35
2022-09-18T23:11:25.417Z,93.23
2022-09-18T23:13:57.266Z,92.97
2022-09-18T23:16:26.859Z,93.53
2022-09-18T23:18:58.017Z,93.68
2022-09-18T23:21:29.050Z,93.55
2022-09-18T23:23:56.087Z,94.59
2022-09-18T23:26:28.458Z,94.33
2022-09-18T23:28:57.620Z,94.91
2022-09-18T23:31:30.241Z,95.03
2022-09-18T23:34:02.437Z,94.72
2022-09-18T23:36:34.794Z,95.60
2022-09-18T23:39:12.237Z,95.87
2022-09-18T23:41:39.078Z,95.28
2022-09-18T23:44:08.206Z,95.39
2022-09-18T23:46:35.278Z,95.35
2022-09-18T23:49:02.061Z,95.69
2022-09-18T23:51:31.657Z,95.57
2022-09-18T23:54:00.120Z,95.73
2022-09-18T23:56:29.147Z,95.95
2022-09-18T23:58:58.164Z,96.15
